Forside
METAR-TAF:

METAR-TAF

Lufthavne :

Burlington Municipal Airport

Burlington, Wisconsin, USA

Breddekreds: 42-41-26N, længdekreds: 088-18-17W, højde: 237 m

Aktuelle vejr

Denne rapport blev lavet for 7 minutter siden, kl. 21:15 UTC
Vind stille
Temperatur -1°C
Fugtighed 93%
Tryk 1012 hPa
Sigt: 16.1 km
Overskyet i en højde af 900 ft

METAR: KBUU 262115Z AUTO 00000KT 10SM OVC009 M01/M02 A2987 RMK AO2 T10101022

Tid: 15:22 (21:22 UTC)


TAF: fraværende

Vejrobservationer og prognoser fra mere end 4000 lufthavne (METAR og TAF).

De gule og røde prikker repræsenterer de meteorologiske stationer.

Flyt musen over at se navnet på stationen.

Så klik over at se vejr observationer og prognoser.

At skifte det kort: Klik på de grønne knapper med et sort kors for at zoome ind; på den grønne knap med en bindestreg for at zoome ud; eller på de grønne pile for tilstødende kort.


METAR-TAF: